Flight Track Log - Related Links

Times and Time Zones

All times are in EDT time to prevent confusion due to time zone crossing. See the SWA1533 flight status page for this flight to view local times or setup timezone preferences in your user account.

Time Position Orientation Groundspeed Altitude Reporting Facility
EDT Latitude Longitude Course Direction KTS MPH feet Rate Location/Type
Sat 12:27:24 PM 33.9500 -118.4833 256° West 218 251 2,300  Level Southern California TRACON
Sat 12:28:25 PM 33.9333 -118.5667 256° West 280 322 5,100 3,063 Climbing Southern California TRACON
Sat 12:29:00 PM 33.9358 -118.6314 273° West 282 325 7,200 2,351 Climbing Los Angeles Center
Sat 12:30:02 PM 33.9931 -118.6922 319° Northwest 278 320 8,900 823 Climbing Los Angeles Center
Sat 12:31:04 PM 34.0664 -118.6906 North 271 312 8,900 629 Level Los Angeles Center
Sat 12:32:06 PM 34.1400 -118.6675 15° North 283 326 10,200 1,887 Climbing Los Angeles Center
Sat 12:33:08 PM 34.2172 -118.6781 354° North 277 319 12,800 2,177 Climbing Los Angeles Center
Sat 12:34:10 PM 34.3122 -118.6928 353° North 340 391 14,700 1,984 Climbing Los Angeles Center
Sat 12:35:12 PM 34.4097 -118.7072 353° North 353 406 16,900 2,129 Climbing Los Angeles Center
Sat 12:36:14 PM 34.5122 -118.7233 353° North 369 425 19,100 2,032 Climbing Los Angeles Center
Sat 12:37:16 PM 34.6089 -118.7631 341° North 369 425 21,100 1,887 Climbing Los Angeles Center
Sat 12:38:18 PM 34.7267 -118.8247 337° Northwest 383 441 23,000 1,742 Climbing Los Angeles Center
Sat 12:39:20 PM 34.8250 -118.8819 334° Northwest 391 450 24,700 1,403 Climbing Los Angeles Center
Sat 12:40:22 PM 34.8992 -118.9561 321° Northwest 390 449 25,900 1,488 Climbing Los Angeles Center
Sat 12:41:25 PM 35.0039 -119.0586 321° Northwest 401 461 27,800 1,296 Climbing Los Angeles Center
Sat 12:42:27 PM 35.0911 -119.1442 321° Northwest 403 464 28,600 1,016 Climbing Los Angeles Center
Sat 12:43:29 PM 35.1842 -119.2331 322° Northwest 422 486 29,900 1,452 Climbing Los Angeles Center
Sat 12:44:31 PM 35.2731 -119.3197 321° Northwest 415 478 31,600 1,306 Climbing Los Angeles Center
Sat 12:45:33 PM 35.3597 -119.4067 321° Northwest 405 466 32,600 1,011 Climbing Los Angeles Center
Sat 12:46:06 PM 35.4094 -119.4567 321° Northwest 406 467 33,200 830 Climbing Oakland Center
Sat 12:47:07 PM 35.4972 -119.5428 321° Northwest 406 467 33,900 344 Climbing Oakland Center
Sat 12:48:08 PM 35.5828 -119.6292 321° Northwest 403 464 33,900  Level Oakland Center
Sat 12:49:10 PM 35.6856 -119.7314 321° Northwest 400 460 33,900  Level Oakland Center
Sat 12:50:11 PM 35.7719 -119.8158 322° Northwest 400 460 33,900  Level Oakland Center
Sat 12:51:12 PM 35.8572 -119.9014 321° Northwest 398 458 33,900  Level Oakland Center
Sat 12:52:14 PM 35.9419 -119.9878 320° Northwest 398 458 33,900  Level Oakland Center
Sat 12:53:15 PM 36.0275 -120.0733 321° Northwest 399 459 33,900  Level Oakland Center
Sat 12:54:16 PM 36.1133 -120.1597 321° Northwest 401 461 33,900  Level Oakland Center
Sat 12:55:17 PM 36.1992 -120.2467 321° Northwest 400 460 33,900  Level Oakland Center
Sat 12:56:19 PM 36.2847 -120.3344 320° Northwest 401 461 33,900  Level Oakland Center
Sat 12:57:20 PM 36.3867 -120.4403 320° Northwest 399 459 33,900  Level Oakland Center
Sat 12:58:21 PM 36.4722 -120.5269 321° Northwest 398 458 33,900 -1,033 Level Oakland Center
Sat 12:59:22 PM 36.5556 -120.6136 320° Northwest 394 453 31,800 -2,439 Descending Oakland Center
Sat 01:00:24 PM 36.6383 -120.7028 319° Northwest 395 455 28,900 -2,488 Descending Oakland Center
Sat 01:01:25 PM 36.7200 -120.7858 321° Northwest 383 441 26,700 -2,213 Descending Oakland Center
Sat 01:02:26 PM 36.7956 -120.8667 319° Northwest 361 415 24,400 -2,146 Descending Oakland Center
Sat 01:03:28 PM 36.8683 -120.9519 317° Northwest 353 406 22,300 -2,098 Descending Oakland Center
Sat 01:04:29 PM 36.9419 -121.0347 318° Northwest 356 410 20,100 -2,115 Descending Oakland Center
Sat 01:05:30 PM 37.0128 -121.1169 317° Northwest 347 399 18,000 -2,066 Descending Oakland Center
Sat 01:06:31 PM 37.0839 -121.1978 318° Northwest 329 379 15,900 -2,146 Descending Oakland Center
Sat 01:07:33 PM 37.1572 -121.2853 316° Northwest 318 366 13,600 -2,049 Descending Oakland Center
Sat 01:08:34 PM 37.2203 -121.3572 318° Northwest 308 354 11,700 -1,721 Descending Oakland Center
Sat 01:09:35 PM 37.2808 -121.4294 317° Northwest 302 348 10,100 -1,574 Descending Oakland Center
Sat 01:10:36 PM 37.3386 -121.4942 318° Northwest 282 325 8,500 -1,268 Descending Oakland Center
Sat 01:11:38 PM 37.3944 -121.5614 316° Northwest 271 312 7,500 -667 Descending Oakland Center
Sat 01:12:06 PM 37.4167 -121.6000 306° West 242 278 7,500 -818 Level Northern Cal TRACON
Sat 01:13:06 PM 37.4667 -121.6500 322° Northwest 221 254 6,300 -744 Descending Northern Cal TRACON
Sat 01:14:07 PM 37.4833 -121.7167 288° West 213 245 6,000 -248 Descending Northern Cal TRACON
Sat 01:15:07 PM 37.5000 -121.7833 288° West 210 242 5,800 -500 Descending Northern Cal TRACON
Sat 01:16:07 PM 37.5333 -121.8500 302° West 207 238 5,000 -400 Descending Northern Cal TRACON
Sat 01:17:07 PM 37.5500 -121.9167 288° West 214 246 5,000 -500 Level Northern Cal TRACON
Sat 01:18:07 PM 37.5833 -121.9833 302° West 211 243 4,000 -1,000 Descending Northern Cal TRACON
Sat 01:19:01 PM 37.6000 -122.0500 288° West 205 236 3,100 -895 Descending Northern Cal TRACON
Sat 01:20:01 PM 37.6333 -122.1000 310° West 200 230 2,300 -944 Descending Northern Cal TRACON
Sat 01:20:49 PM 37.6525 -122.1436 299° West 193 222 1,400 -881 Descending Oakland Center
Sat 01:21:50 PM 37.6792 -122.1803 313° West 166 191 700 -689 Descending Oakland Center
Sat 01:24:00 PM 37.7167 -122.2167 270° West  Level FlightAware Approximate
Sat 01:31:00 PM 37.7213 -122.2207 270° West  Level Estimated

Login

Don't have an account? Register now (free) for customized features, flight alerts, and more!